Time;durP1;ratioP1;P1;durP2;ratioP2;P2;SDS_P1;SDS_P2;PMS_P1;PMS_P2;Temp;Humidity;BMP_temperature;BMP_pressure;BME280_temperature;BME280_humidity;BME280_pressure;Samples;Min_cycle;Max_cycle;Signal;HPM_P1;HPM_P2
2023/09/20 00:00:22;;;;;;;;;;;;;;;-146.25;100.00;52291.16;2097941;28;35722;-62
2023/09/20 00:01:24;;;;;;;;;;;;;;;-146.25;100.00;52307.38;2097723;28;33288;-63
2023/09/20 00:02:26;;;;;;;;;;;;;;;-146.25;100.00;52283.03;2097582;28;31808;-63
2023/09/20 00:03:28;;;;;;;;;;;;;;;-146.25;100.00;52256.69;2096898;28;34199;-62
2023/09/20 00:04:29;;;;;;;;;;;;;;;-146.25;100.00;52268.84;2097282;28;33625;-62
2023/09/20 00:05:32;;;;;;;;;;;;;;;-146.25;100.00;52252.63;2097588;28;35446;-62
2023/09/20 00:06:34;;;;;;;;;;;;;;;-146.25;100.00;52283.03;2097787;28;35645;-63
2023/09/20 00:07:36;;;;;;;;;;;;;;;-146.25;100.00;52262.75;2097654;28;35484;-63
2023/09/20 00:08:37;;;;;;;;;;;;;;;-146.25;100.00;52287.09;2098459;28;19991;-63
2023/09/20 00:09:40;;;;;;;;;;;;;;;-146.25;100.00;52297.22;2097941;28;36313;-63
2023/09/20 00:10:45;;;;;;;;;;;;;;;-146.25;100.00;52256.69;2097638;28;35944;-63
2023/09/20 00:11:47;;;;;;;;;;;;;;;-146.25;100.00;52266.81;2097667;28;35466;-62
2023/09/20 00:12:49;;;;;;;;;;;;;;;-146.25;100.00;52258.72;2097767;28;35647;-62
2023/09/20 00:13:52;;;;;;;;;;;;;;;-146.25;100.00;52283.03;2097589;28;33862;-63
2023/09/20 00:14:54;;;;;;;;;;;;;;;-146.25;100.00;52285.06;2097259;28;40622;-63
2023/09/20 00:15:56;;;;;;;;;;;;;;;-146.25;100.00;52252.63;2097730;28;32546;-63
2023/09/20 00:17:00;;;;;;;;;;;;;;;-146.25;100.00;52258.72;2097642;28;36445;-63
2023/09/20 00:18:03;;;;;;;;;;;;;;;-146.25;100.00;52289.13;2097539;28;38773;-63
2023/09/20 00:19:05;;;;;;;;;;;;;;;-146.25;100.00;52287.09;2097463;28;34981;-63
2023/09/20 00:20:14;;;;;;;;;;;;;;;-146.25;100.00;52299.25;2097460;28;39435;-63
2023/09/20 00:21:16;;;;;;;;;;;;;;;-146.25;100.00;52250.59;2097811;28;35501;-63
2023/09/20 00:22:17;;;;;;;;;;;;;;;-146.25;100.00;52311.44;2098128;28;34151;-63
2023/09/20 00:23:21;;;;;;;;;;;;;;;-146.25;100.00;52250.59;2097746;28;38587;-63
2023/09/20 00:24:23;;;;;;;;;;;;;;;-146.25;100.00;52291.16;2098381;28;19921;-63
2023/09/20 00:25:26;;;;;;;;;;;;;;;-146.25;100.00;52270.88;2097419;28;40446;-62
2023/09/20 00:26:28;;;;;;;;;;;;;;;-146.25;100.00;52283.03;2097716;28;32785;-62
2023/09/20 00:27:29;;;;;;;;;;;;;;;-146.25;100.00;52242.50;2105497;28;20868;-62
2023/09/20 00:28:31;;;;;;;;;;;;;;;-146.25;100.00;52283.03;2105185;28;34673;-63
2023/09/20 00:29:35;;;;;;;;;;;;;;;-146.25;100.00;52252.63;2098313;28;19968;-63
2023/09/20 00:30:37;;;;;;;;;;;;;;;-146.25;100.00;52266.81;2097686;28;28353;-62
2023/09/20 00:31:40;;;;;;;;;;;;;;;-146.25;100.00;52254.66;2105499;28;26411;-63
2023/09/20 00:32:44;;;;;;;;;;;;;;;-146.25;100.00;52268.84;2097033;28;32495;-62
2023/09/20 00:33:47;;;;;;;;;;;;;;;-146.25;100.00;52254.66;2089450;28;20060;-63
2023/09/20 00:34:48;;;;;;;;;;;;;;;-146.25;100.00;52272.91;2097878;28;20000;-62
2023/09/20 00:35:55;;;;;;;;;;;;;;;-146.25;100.00;52248.56;2097711;28;27174;-63
2023/09/20 00:36:57;;;;;;;;;;;;;;;-146.25;100.00;52246.53;2098266;28;19999;-63
2023/09/20 00:37:58;;;;;;;;;;;;;;;-146.25;100.00;52268.84;2097905;28;31479;-63
2023/09/20 00:39:00;;;;;;;;;;;;;;;-146.25;100.00;52283.03;2105287;28;34072;-63
2023/09/20 00:40:03;;;;;;;;;;;;;;;-146.25;100.00;52283.03;2105913;28;20761;-61
2023/09/20 00:41:07;;;;;;;;;;;;;;;-146.25;100.00;52270.88;2097832;28;31462;-63
2023/09/20 00:42:09;;;;;;;;;;;;;;;-146.25;100.00;52262.75;2105252;28;26234;-63
2023/09/20 00:43:11;;;;;;;;;;;;;;;-146.25;100.00;52264.78;2105008;28;24707;-63
2023/09/20 00:44:13;;;;;;;;;;;;;;;-146.25;100.00;52287.09;2097172;28;31805;-63
2023/09/20 00:45:15;;;;;;;;;;;;;;;-146.25;100.00;52258.72;2098010;28;19924;-63
2023/09/20 00:46:17;;;;;;;;;;;;;;;-146.25;100.00;52262.75;2104941;28;36618;-63
2023/09/20 00:47:20;;;;;;;;;;;;;;;-146.25;100.00;52260.72;2105396;28;30810;-63
2023/09/20 00:48:22;;;;;;;;;;;;;;;-146.25;100.00;52287.09;2097304;28;32994;-64
2023/09/20 00:49:24;;;;;;;;;;;;;;;-146.25;100.00;52254.66;2097049;28;19952;-63
2023/09/20 00:50:29;;;;;;;;;;;;;;;-146.25;100.00;52258.72;2091865;28;19925;-63
2023/09/20 00:51:31;;;;;;;;;;;;;;;-146.25;100.00;52254.66;2088827;28;28719;-63
2023/09/20 00:52:33;;;;;;;;;;;;;;;-146.25;100.00;52250.59;2089533;28;28844;-62
2023/09/20 00:53:35;;;;;;;;;;;;;;;-146.25;100.00;52274.94;2096885;28;26387;-63
2023/09/20 00:54:37;;;;;;;;;;;;;;;-146.25;100.00;52260.72;2088387;28;29615;-61
2023/09/20 00:55:42;;;;;;;;;;;;;;;-146.25;100.00;52266.81;2089180;28;19921;-63
2023/09/20 00:56:46;;;;;;;;;;;;;;;-146.25;100.00;52268.84;2089605;28;30654;-63
2023/09/20 00:57:52;;;;;;;;;;;;;;;-146.25;100.00;52278.97;2088893;28;32203;-63
2023/09/20 00:58:56;;;;;;;;;;;;;;;-146.25;100.00;52228.28;2096756;28;29805;-63
2023/09/20 00:59:58;;;;;;;;;;;;;;;-146.25;100.00;52272.91;2097339;28;20713;-63
2023/09/20 01:01:00;;;;;;;;;;;;;;;-146.25;100.00;52307.38;2080760;28;19995;-63
2023/09/20 01:02:03;;;;;;;;;;;;;;;-146.25;100.00;52236.41;2080395;28;31910;-63
2023/09/20 01:03:06;;;;;;;;;;;;;;;-146.25;100.00;52258.72;2088413;28;35449;-63
2023/09/20 01:04:08;;;;;;;;;;;;;;;-146.25;100.00;52246.53;2088702;28;29463;-62
2023/09/20 01:05:12;;;;;;;;;;;;;;;-146.25;100.00;52303.31;2089453;28;20051;-63
2023/09/20 01:06:15;;;;;;;;;;;;;;;-146.25;100.00;52268.84;2089577;28;20887;-63
2023/09/20 01:07:18;;;;;;;;;;;;;;;-146.25;100.00;52287.09;2088724;28;30269;-63
2023/09/20 01:08:20;;;;;;;;;;;;;;;-146.25;100.00;52293.19;2088213;28;27580;-63
2023/09/20 01:09:24;;;;;;;;;;;;;;;-146.25;100.00;52270.88;2089218;28;20010;-63
2023/09/20 01:10:27;;;;;;;;;;;;;;;-146.25;100.00;52291.16;2088762;28;32009;-63
2023/09/20 01:11:30;;;;;;;;;;;;;;;-146.25;100.00;52291.16;2089257;28;30945;-62
2023/09/20 01:12:32;;;;;;;;;;;;;;;-146.25;100.00;52272.91;2087966;28;27277;-63
2023/09/20 01:13:33;;;;;;;;;;;;;;;-146.25;100.00;52283.03;2088592;28;32635;-63
2023/09/20 01:14:35;;;;;;;;;;;;;;;-146.25;100.00;52262.75;2089625;28;20012;-64
2023/09/20 01:15:37;;;;;;;;;;;;;;;-146.25;100.00;52270.88;2089127;28;31958;-63
2023/09/20 01:16:39;;;;;;;;;;;;;;;-146.25;100.00;52262.75;2088467;28;31042;-63
2023/09/20 01:17:44;;;;;;;;;;;;;;;-146.25;100.00;52329.66;2088953;28;21416;-63
2023/09/20 01:18:47;;;;;;;;;;;;;;;-146.25;100.00;52303.31;2096602;28;28618;-63
2023/09/20 01:19:49;;;;;;;;;;;;;;;-146.25;100.00;52262.75;2089336;28;30117;-63
2023/09/20 01:20:51;;;;;;;;;;;;;;;-146.25;100.00;52305.34;2097635;28;25816;-63
2023/09/20 01:21:52;;;;;;;;;;;;;;;-146.25;100.00;52276.97;2097464;28;33158;-63
2023/09/20 01:22:59;;;;;;;;;;;;;;;-146.25;100.00;52291.16;2097625;28;21623;-63
2023/09/20 01:24:02;;;;;;;;;;;;;;;-146.25;100.00;52281.00;2096585;28;32928;-63
2023/09/20 01:25:09;;;;;;;;;;;;;;;-146.25;100.00;52287.09;2097351;28;19929;-63
2023/09/20 01:26:11;;;;;;;;;;;;;;;-146.25;100.00;52276.97;2097895;28;30595;-63
2023/09/20 01:27:13;;;;;;;;;;;;;;;-146.25;100.00;52287.09;2096976;28;30163;-63
2023/09/20 01:28:15;;;;;;;;;;;;;;;-146.25;100.00;52258.72;2097396;28;31635;-63
2023/09/20 01:29:17;;;;;;;;;;;;;;;-146.25;100.00;52291.16;2096571;28;32570;-62
2023/09/20 01:30:19;;;;;;;;;;;;;;;-146.25;100.00;52313.44;2097110;28;26876;-63
2023/09/20 01:31:20;;;;;;;;;;;;;;;-146.25;100.00;52254.66;2096444;28;31823;-62
2023/09/20 01:32:22;;;;;;;;;;;;;;;-146.25;100.00;52299.25;2096597;28;30867;-63
2023/09/20 01:33:26;;;;;;;;;;;;;;;-146.25;100.00;52289.13;2105186;28;27321;-63
2023/09/20 01:34:27;;;;;;;;;;;;;;;-146.25;100.00;52274.94;2105008;28;34666;-63
2023/09/20 01:35:30;;;;;;;;;;;;;;;-146.25;100.00;52303.31;2104856;28;36874;-63
2023/09/20 01:36:32;;;;;;;;;;;;;;;-146.25;100.00;52283.03;2104879;28;28172;-63
2023/09/20 01:37:37;;;;;;;;;;;;;;;-146.25;100.00;52270.88;2105138;28;20992;-63
2023/09/20 01:38:39;;;;;;;;;;;;;;;-146.25;100.00;52291.16;2105224;28;27353;-63
2023/09/20 01:39:42;;;;;;;;;;;;;;;-146.25;100.00;52281.00;2104326;28;35515;-63
2023/09/20 01:40:46;;;;;;;;;;;;;;;-146.25;100.00;52238.44;2104904;28;32150;-63
2023/09/20 01:41:48;;;;;;;;;;;;;;;-146.25;100.00;52246.53;2098854;28;20094;-63
2023/09/20 01:42:52;;;;;;;;;;;;;;;-146.25;100.00;52256.69;2097032;28;30757;-63
2023/09/20 01:43:56;;;;;;;;;;;;;;;-146.25;100.00;52262.75;2097381;28;28114;-63
2023/09/20 01:44:57;;;;;;;;;;;;;;;-146.25;100.00;52242.50;2097224;28;24653;-63
2023/09/20 01:46:03;;;;;;;;;;;;;;;-146.25;100.00;52299.25;2104770;28;29502;-61
2023/09/20 01:47:05;;;;;;;;;;;;;;;-146.25;100.00;52260.72;2105267;28;19955;-62
2023/09/20 01:48:11;;;;;;;;;;;;;;;-146.25;100.00;52268.84;2097218;28;34829;-63
2023/09/20 01:49:13;;;;;;;;;;;;;;;-146.25;100.00;52256.69;2097709;28;20018;-62
2023/09/20 01:50:20;;;;;;;;;;;;;;;-146.25;100.00;52276.97;2104666;28;24278;-62
2023/09/20 01:51:23;;;;;;;;;;;;;;;-146.25;100.00;52303.31;2103906;28;34397;-62
2023/09/20 01:52:27;;;;;;;;;;;;;;;-146.25;100.00;52258.72;2105311;28;20104;-62
2023/09/20 01:53:28;;;;;;;;;;;;;;;-146.25;100.00;52256.69;2104738;28;28932;-61
2023/09/20 01:54:30;;;;;;;;;;;;;;;-146.25;100.00;52256.69;2097539;28;26951;-62
2023/09/20 01:55:31;;;;;;;;;;;;;;;-146.25;100.00;52270.88;2095796;28;26572;-61
2023/09/20 01:56:33;;;;;;;;;;;;;;;-146.25;100.00;52268.84;2105310;28;19929;-62
2023/09/20 01:57:35;;;;;;;;;;;;;;;-146.25;100.00;52254.66;2105144;28;21157;-61
2023/09/20 01:58:38;;;;;;;;;;;;;;;-146.25;100.00;52264.78;2096434;28;19983;-62
2023/09/20 01:59:43;;;;;;;;;;;;;;;-146.25;100.00;52258.72;2088630;28;20063;-62
2023/09/20 02:00:50;;;;;;;;;;;;;;;-146.25;100.00;52299.25;2100539;28;19939;-62
2023/09/20 02:01:52;;;;;;;;;;;;;;;-146.25;100.00;52291.16;2112265;28;20809;-62
2023/09/20 02:02:55;;;;;;;;;;;;;;;-146.25;100.00;52250.59;2105146;28;23136;-62
2023/09/20 02:03:59;;;;;;;;;;;;;;;-146.25;100.00;52274.94;2096458;28;35092;-62
2023/09/20 02:05:00;;;;;;;;;;;;;;;-146.25;100.00;52262.75;2096447;28;30451;-62
2023/09/20 02:06:02;;;;;;;;;;;;;;;-146.25;100.00;52285.06;2096258;28;34512;-62
2023/09/20 02:07:06;;;;;;;;;;;;;;;-146.25;100.00;52258.72;2088085;28;27809;-62
2023/09/20 02:08:09;;;;;;;;;;;;;;;-146.25;100.00;52299.25;2096837;28;19927;-62
2023/09/20 02:09:12;;;;;;;;;;;;;;;-146.25;100.00;52295.19;2096349;28;27826;-61
2023/09/20 02:10:16;;;;;;;;;;;;;;;-146.25;100.00;52317.50;2113630;28;19920;-62
2023/09/20 02:11:18;;;;;;;;;;;;;;;-146.25;100.00;52285.06;2112365;28;30847;-62
2023/09/20 02:12:20;;;;;;;;;;;;;;;-146.25;100.00;52254.66;2112653;28;30008;-62
2023/09/20 02:13:22;;;;;;;;;;;;;;;-146.25;100.00;52260.72;2104474;28;19925;-62
2023/09/20 02:14:23;;;;;;;;;;;;;;;-146.25;100.00;52315.47;2096668;28;20706;-62
2023/09/20 02:15:28;;;;;;;;;;;;;;;-146.25;100.00;52323.59;2096170;28;23273;-62
2023/09/20 02:16:32;;;;;;;;;;;;;;;-146.25;100.00;52285.06;2096588;28;29296;-63
2023/09/20 02:17:37;;;;;;;;;;;;;;;-146.25;100.00;52289.13;2097030;28;28423;-62
2023/09/20 02:18:39;;;;;;;;;;;;;;;-146.25;100.00;52270.88;2097325;28;30436;-62
2023/09/20 02:19:45;;;;;;;;;;;;;;;-146.25;100.00;52242.50;2097578;28;19932;-62
2023/09/20 02:20:47;;;;;;;;;;;;;;;-146.25;100.00;52299.25;2104466;28;35677;-62
2023/09/20 02:21:51;;;;;;;;;;;;;;;-146.25;100.00;52301.28;2104921;28;28275;-62
2023/09/20 02:22:55;;;;;;;;;;;;;;;-146.25;100.00;52303.31;2097166;28;29976;-62
2023/09/20 02:23:58;;;;;;;;;;;;;;;-146.25;100.00;52287.09;2096828;28;32608;-62
2023/09/20 02:25:04;;;;;;;;;;;;;;;-146.25;100.00;52262.75;2096938;28;33797;-61
2023/09/20 02:26:06;;;;;;;;;;;;;;;-146.25;100.00;52266.81;2096394;28;31926;-62
2023/09/20 02:27:08;;;;;;;;;;;;;;;-146.25;100.00;52266.81;2088383;28;24787;-62
2023/09/20 02:28:10;;;;;;;;;;;;;;;-146.25;100.00;52295.19;2095365;28;39932;-62
2023/09/20 02:29:12;;;;;;;;;;;;;;;-146.25;100.00;52283.03;2096731;28;19925;-61
2023/09/20 02:30:16;;;;;;;;;;;;;;;-146.25;100.00;52289.13;2097168;28;23527;-62
2023/09/20 02:31:18;;;;;;;;;;;;;;;-146.25;100.00;52250.59;2096584;28;30357;-61
2023/09/20 02:32:20;;;;;;;;;;;;;;;-146.25;100.00;52262.75;2097147;28;30772;-62
2023/09/20 02:33:23;;;;;;;;;;;;;;;-146.25;100.00;52295.19;2096731;28;35461;-62
2023/09/20 02:34:25;;;;;;;;;;;;;;;-146.25;100.00;52258.72;2096967;28;28621;-62
2023/09/20 02:35:29;;;;;;;;;;;;;;;-146.25;100.00;52254.66;2104630;28;24192;-61
2023/09/20 02:36:31;;;;;;;;;;;;;;;-146.25;100.00;52285.06;2104748;28;19928;-62
2023/09/20 02:37:34;;;;;;;;;;;;;;;-146.25;100.00;52285.06;2097553;28;19998;-62
2023/09/20 02:38:37;;;;;;;;;;;;;;;-146.25;100.00;52287.09;2104747;28;20768;-62
2023/09/20 02:39:39;;;;;;;;;;;;;;;-146.25;100.00;52272.91;2096072;28;27520;-62
2023/09/20 02:40:41;;;;;;;;;;;;;;;-146.25;100.00;52305.34;2096220;28;28670;-62
2023/09/20 02:41:42;;;;;;;;;;;;;;;-146.25;100.00;52268.84;2096673;28;30416;-63
2023/09/20 02:42:51;;;;;;;;;;;;;;;-146.25;100.00;52276.97;2104915;28;20873;-62
2023/09/20 02:43:53;;;;;;;;;;;;;;;-146.25;100.00;52293.19;2096810;28;20837;-61
2023/09/20 02:44:55;;;;;;;;;;;;;;;-146.25;100.00;52258.72;2087756;28;28046;-62
2023/09/20 02:46:02;;;;;;;;;;;;;;;-146.25;100.00;52297.22;2088093;28;19931;-62
2023/09/20 02:47:04;;;;;;;;;;;;;;;-146.25;100.00;52228.28;2096633;28;25629;-62
2023/09/20 02:48:09;;;;;;;;;;;;;;;-146.25;100.00;52276.97;2097491;28;19928;-62
2023/09/20 02:49:11;;;;;;;;;;;;;;;-146.25;100.00;52301.28;2105215;28;20070;-61
2023/09/20 02:50:18;;;;;;;;;;;;;;;-146.25;100.00;52291.16;2104506;28;28436;-62
2023/09/20 02:51:23;;;;;;;;;;;;;;;-146.25;100.00;52236.41;2105112;28;20820;-62
2023/09/20 02:52:25;;;;;;;;;;;;;;;-146.25;100.00;52250.59;2103918;28;32112;-62
2023/09/20 02:53:27;;;;;;;;;;;;;;;-146.25;100.00;52260.72;2097320;28;19975;-62
2023/09/20 02:54:28;;;;;;;;;;;;;;;-146.25;100.00;52258.72;2096966;28;29969;-62
2023/09/20 02:55:31;;;;;;;;;;;;;;;-146.25;100.00;52246.53;2104499;28;28271;-62
2023/09/20 02:56:34;;;;;;;;;;;;;;;-146.25;100.00;52285.06;2096602;28;19932;-62
2023/09/20 02:57:39;;;;;;;;;;;;;;;-146.25;100.00;52293.19;2096047;28;25368;-62
2023/09/20 02:58:41;;;;;;;;;;;;;;;-146.25;100.00;52291.16;2097042;28;20728;-62
2023/09/20 02:59:43;;;;;;;;;;;;;;;-146.25;100.00;52250.59;2105017;28;20851;-63
2023/09/20 03:00:50;;;;;;;;;;;;;;;-146.25;100.00;52281.00;2096276;28;19946;-61
2023/09/20 03:01:53;;;;;;;;;;;;;;;-146.25;100.00;52266.81;2089415;28;20043;-62
2023/09/20 03:02:57;;;;;;;;;;;;;;;-146.25;100.00;52297.22;2096431;28;26781;-62
2023/09/20 03:03:59;;;;;;;;;;;;;;;-146.25;100.00;52297.22;2097417;28;19932;-61
2023/09/20 03:05:01;;;;;;;;;;;;;;;-146.25;100.00;52311.44;2096292;28;20868;-62
2023/09/20 03:06:10;;;;;;;;;;;;;;;-146.25;100.00;52278.97;2088124;28;19929;-61
2023/09/20 03:07:12;;;;;;;;;;;;;;;-146.25;100.00;52254.66;2088416;28;20063;-62
2023/09/20 03:08:14;;;;;;;;;;;;;;;-146.25;100.00;52274.94;2088418;28;19917;-60
2023/09/20 03:09:17;;;;;;;;;;;;;;;-146.25;100.00;52238.44;2096819;28;19925;-62
2023/09/20 03:10:21;;;;;;;;;;;;;;;-146.25;100.00;52301.28;2104780;28;22663;-62
2023/09/20 03:11:25;;;;;;;;;;;;;;;-146.25;100.00;52274.94;2105158;28;20747;-62
2023/09/20 03:12:28;;;;;;;;;;;;;;;-146.25;100.00;52291.16;2105056;28;19983;-62
2023/09/20 03:13:30;;;;;;;;;;;;;;;-146.25;100.00;52307.38;2104597;28;21002;-62
2023/09/20 03:14:38;;;;;;;;;;;;;;;-146.25;100.00;52341.84;2104778;28;19924;-62
2023/09/20 03:15:43;;;;;;;;;;;;;;;-146.25;100.00;52283.03;2104199;28;19970;-62
2023/09/20 03:16:47;;;;;;;;;;;;;;;-146.25;100.00;52252.63;2104567;28;20895;-62
2023/09/20 03:17:54;;;;;;;;;;;;;;;-146.25;100.00;52303.31;2105049;28;20055;-63
2023/09/20 03:18:56;;;;;;;;;;;;;;;-146.25;100.00;52327.66;2097402;28;19928;-62
2023/09/20 03:19:57;;;;;;;;;;;;;;;-146.25;100.00;52291.16;2103905;28;24406;-62
2023/09/20 03:21:05;;;;;;;;;;;;;;;-146.25;100.00;52293.19;2096728;28;19925;-62
2023/09/20 03:22:09;;;;;;;;;;;;;;;-146.25;100.00;52281.00;2089192;28;20794;-62
2023/09/20 03:23:13;;;;;;;;;;;;;;;-146.25;100.00;52291.16;2088244;28;19922;-61
2023/09/20 03:24:17;;;;;;;;;;;;;;;-146.25;100.00;52287.09;2088434;28;20025;-62
2023/09/20 03:25:22;;;;;;;;;;;;;;;-146.25;100.00;52260.72;2096824;28;19928;-61
2023/09/20 03:26:27;;;;;;;;;;;;;;;-146.25;100.00;52281.00;2096393;28;19932;-62
2023/09/20 03:27:29;;;;;;;;;;;;;;;-146.25;100.00;52291.16;2096613;28;19963;-62
2023/09/20 03:28:32;;;;;;;;;;;;;;;-146.25;100.00;52281.00;2104253;28;19928;-61
2023/09/20 03:29:35;;;;;;;;;;;;;;;-146.25;100.00;52283.03;2096282;28;19933;-62
2023/09/20 03:30:38;;;;;;;;;;;;;;;-146.25;100.00;52262.75;2088197;28;19999;-62
2023/09/20 03:31:43;;;;;;;;;;;;;;;-146.25;100.00;52309.41;2096564;28;19952;-61
2023/09/20 03:32:44;;;;;;;;;;;;;;;-146.25;100.00;52258.72;2104593;28;19917;-61
2023/09/20 03:33:47;;;;;;;;;;;;;;;-146.25;100.00;52270.88;2096168;28;19925;-62
2023/09/20 03:34:55;;;;;;;;;;;;;;;-146.25;100.00;52272.91;2089244;28;19929;-62
2023/09/20 03:36:04;;;;;;;;;;;;;;;-146.25;100.00;52287.09;2087918;28;20063;-62
2023/09/20 03:37:10;;;;;;;;;;;;;;;-146.25;100.00;52303.31;2096876;28;19935;-61
2023/09/20 03:38:12;;;;;;;;;;;;;;;-146.25;100.00;52305.34;2096121;28;19925;-62
2023/09/20 03:39:14;;;;;;;;;;;;;;;-146.25;100.00;52299.25;2096381;28;19925;-61
2023/09/20 03:40:17;;;;;;;;;;;;;;;-146.25;100.00;52258.72;2096026;28;19928;-62
2023/09/20 03:41:19;;;;;;;;;;;;;;;-146.25;100.00;52291.16;2088094;28;19929;-62
2023/09/20 03:42:21;;;;;;;;;;;;;;;-146.25;100.00;52274.94;2087916;28;20043;-62
2023/09/20 03:43:23;;;;;;;;;;;;;;;-146.25;100.00;52283.03;2087922;28;19929;-62
2023/09/20 03:44:26;;;;;;;;;;;;;;;-146.25;100.00;52256.69;2088257;28;19928;-62
2023/09/20 03:45:28;;;;;;;;;;;;;;;-146.25;100.00;52266.81;2087098;28;33581;-62
2023/09/20 03:46:32;;;;;;;;;;;;;;;-146.25;100.00;52287.09;2096717;28;19933;-62
2023/09/20 03:47:33;;;;;;;;;;;;;;;-146.25;100.00;52287.09;2096236;28;19925;-63
2023/09/20 03:48:35;;;;;;;;;;;;;;;-146.25;100.00;52256.69;2096130;28;23604;-62
2023/09/20 03:49:37;;;;;;;;;;;;;;;-146.25;100.00;52301.28;2104269;28;19929;-62
2023/09/20 03:50:43;;;;;;;;;;;;;;;-146.25;100.00;52315.47;2104181;28;20106;-62
2023/09/20 03:51:45;;;;;;;;;;;;;;;-146.25;100.00;52262.75;2104516;28;20794;-62
2023/09/20 03:52:47;;;;;;;;;;;;;;;-146.25;100.00;52272.91;2104392;28;26510;-61
2023/09/20 03:53:49;;;;;;;;;;;;;;;-146.25;100.00;52287.09;2104220;28;28512;-62
2023/09/20 03:54:55;;;;;;;;;;;;;;;-146.25;99.50;52276.97;2096282;28;19936;-61
2023/09/20 03:55:57;;;;;;;;;;;;;;;-146.25;99.35;52285.06;2095569;28;26039;-61
2023/09/20 03:56:58;;;;;;;;;;;;;;;-146.25;99.85;52276.97;2096629;28;19924;-61
2023/09/20 03:58:00;;;;;;;;;;;;;;;-146.25;99.20;52262.75;2096137;28;19924;-61
2023/09/20 03:59:01;;;;;;;;;;;;;;;-146.25;99.40;52248.56;2103948;28;26691;-61
2023/09/20 04:00:11;;;;;;;;;;;;;;;-146.25;99.32;52299.25;2096191;28;19974;-61
2023/09/20 04:01:20;;;;;;;;;;;;;;;-146.25;99.16;52246.53;2098096;28;20026;-61
2023/09/20 04:02:23;;;;;;;;;;;;;;;-146.25;99.25;52256.69;2104051;28;20260;-62
2023/09/20 04:03:25;;;;;;;;;;;;;;;-146.25;99.42;52285.06;2104338;28;19980;-61
2023/09/20 04:04:29;;;;;;;;;;;;;;;-146.25;99.80;52309.41;2104558;28;20722;-62
2023/09/20 04:05:33;;;;;;;;;;;;;;;-146.25;99.29;52260.72;2104345;28;24797;-62
2023/09/20 04:06:46;;;;;;;;;;;;;;;-146.25;99.01;52287.09;2097191;28;20788;-61
2023/09/20 04:07:48;;;;;;;;;;;;;;;-146.25;99.31;52270.88;2096304;28;30180;-62
2023/09/20 04:08:50;;;;;;;;;;;;;;;-146.25;99.54;52297.22;2096314;28;19968;-62
2023/09/20 04:09:52;;;;;;;;;;;;;;;-146.25;99.56;52232.34;2087571;28;19925;-62
2023/09/20 04:10:56;;;;;;;;;;;;;;;-146.25;99.57;52299.25;2095879;28;31192;-61
2023/09/20 04:11:59;;;;;;;;;;;;;;;-146.25;99.60;52254.66;2096324;28;28131;-61
2023/09/20 04:13:02;;;;;;;;;;;;;;;-146.25;99.08;52293.19;2095923;28;35491;-61
2023/09/20 04:14:06;;;;;;;;;;;;;;;-146.25;98.88;52287.09;2096660;28;23412;-62
2023/09/20 04:15:08;;;;;;;;;;;;;;;-146.25;98.98;52242.50;2096668;28;19925;-62
2023/09/20 04:16:10;;;;;;;;;;;;;;;-146.25;99.04;52264.78;2104410;28;19967;-61
2023/09/20 04:17:12;;;;;;;;;;;;;;;-146.25;98.80;52281.00;2096085;28;20159;-62
2023/09/20 04:18:14;;;;;;;;;;;;;;;-146.25;99.39;52254.66;2087719;28;20039;-62
2023/09/20 04:19:16;;;;;;;;;;;;;;;-146.25;99.26;52305.34;2089253;28;19929;-61
2023/09/20 04:20:22;;;;;;;;;;;;;;;-146.25;99.26;52307.38;2089295;28;19921;-62
2023/09/20 04:21:24;;;;;;;;;;;;;;;-146.25;99.29;52291.16;2089722;28;22428;-62
2023/09/20 04:22:26;;;;;;;;;;;;;;;-146.25;99.35;52293.19;2097347;28;20096;-61
2023/09/20 04:23:28;;;;;;;;;;;;;;;-146.25;99.19;52274.94;2105719;28;25210;-62
2023/09/20 04:24:35;;;;;;;;;;;;;;;-146.25;99.54;52307.38;2097743;28;26855;-61
2023/09/20 04:25:36;;;;;;;;;;;;;;;-146.25;99.42;52256.69;2105835;28;19928;-62
2023/09/20 04:26:40;;;;;;;;;;;;;;;-146.25;99.37;52254.66;2097421;28;19925;-61
2023/09/20 04:27:46;;;;;;;;;;;;;;;-146.25;99.35;52285.06;2089759;28;20806;-62
2023/09/20 04:28:51;;;;;;;;;;;;;;;-146.25;99.09;52278.97;2089837;28;19925;-62
2023/09/20 04:29:53;;;;;;;;;;;;;;;-146.25;99.52;52268.84;2089718;28;19929;-62
2023/09/20 04:30:55;;;;;;;;;;;;;;;-146.25;99.31;52303.31;2089072;28;20808;-61
2023/09/20 04:31:57;;;;;;;;;;;;;;;-146.25;99.55;52234.38;2089146;28;20078;-62
2023/09/20 04:33:00;;;;;;;;;;;;;;;-146.25;99.38;52250.59;2089333;28;20909;-62
2023/09/20 04:34:07;;;;;;;;;;;;;;;-146.25;99.45;52274.94;2089756;28;19936;-62
2023/09/20 04:35:09;;;;;;;;;;;;;;;-146.25;99.63;52244.50;2089131;28;20043;-62
2023/09/20 04:36:12;;;;;;;;;;;;;;;-146.25;99.69;52283.03;2097506;28;19924;-62
2023/09/20 04:37:13;;;;;;;;;;;;;;;-146.25;99.47;52281.00;2105771;28;21516;-62
2023/09/20 04:38:15;;;;;;;;;;;;;;;-146.25;100.00;52274.94;2097229;28;19927;-62
2023/09/20 04:39:17;;;;;;;;;;;;;;;-146.25;99.95;52244.50;2089175;28;20063;-62
2023/09/20 04:40:23;;;;;;;;;;;;;;;-146.25;100.00;52274.94;2089266;28;20846;-62
2023/09/20 04:41:25;;;;;;;;;;;;;;;-146.25;100.00;52262.75;2096308;28;29668;-62
2023/09/20 04:42:27;;;;;;;;;;;;;;;-146.25;100.00;52285.06;2097636;28;20814;-62
2023/09/20 04:43:30;;;;;;;;;;;;;;;-146.25;100.00;52299.25;2097115;28;19976;-61
2023/09/20 04:44:32;;;;;;;;;;;;;;;-146.25;100.00;52246.53;2105304;28;20071;-62
2023/09/20 04:45:34;;;;;;;;;;;;;;;-146.25;99.90;52303.31;2105257;28;29249;-62
2023/09/20 04:46:36;;;;;;;;;;;;;;;-146.25;100.00;52285.06;2105590;28;20729;-62
2023/09/20 04:47:38;;;;;;;;;;;;;;;-146.25;99.85;52254.66;2097303;28;20782;-61
2023/09/20 04:48:40;;;;;;;;;;;;;;;-146.25;99.77;52307.38;2089197;28;20765;-62
2023/09/20 04:49:42;;;;;;;;;;;;;;;-146.25;99.82;52289.13;2097230;28;19988;-61
2023/09/20 04:50:48;;;;;;;;;;;;;;;-146.25;99.25;52309.41;2105623;28;21518;-62
2023/09/20 04:51:51;;;;;;;;;;;;;;;-146.25;99.80;52246.53;2105418;28;20066;-61
2023/09/20 04:52:54;;;;;;;;;;;;;;;-146.25;99.90;52295.19;2097453;28;20687;-61
2023/09/20 04:53:55;;;;;;;;;;;;;;;-146.25;100.00;52278.97;2097266;28;23300;-62
2023/09/20 04:54:58;;;;;;;;;;;;;;;-146.25;100.00;52274.94;2097183;28;19982;-61
2023/09/20 04:56:00;;;;;;;;;;;;;;;-146.25;100.00;52252.63;2089147;28;19929;-62
2023/09/20 04:57:04;;;;;;;;;;;;;;;-146.25;100.00;52307.38;2097481;28;19928;-62
2023/09/20 04:58:06;;;;;;;;;;;;;;;-146.25;99.79;52272.91;2105583;28;20042;-61
2023/09/20 04:59:08;;;;;;;;;;;;;;;-146.25;99.79;52260.72;2105400;28;19917;-61
2023/09/20 05:00:11;;;;;;;;;;;;;;;-146.25;99.87;52260.72;2105403;28;20021;-62
2023/09/20 05:01:13;;;;;;;;;;;;;;;-146.25;100.00;52313.44;2096861;28;20075;-62
2023/09/20 05:02:17;;;;;;;;;;;;;;;-146.25;100.00;52285.06;2089571;28;19932;-62
2023/09/20 05:03:19;;;;;;;;;;;;;;;-146.25;100.00;52305.34;2097606;28;19924;-61
2023/09/20 05:04:22;;;;;;;;;;;;;;;-146.25;100.00;52246.53;2105902;28;20792;-61
2023/09/20 05:05:25;;;;;;;;;;;;;;;-146.25;100.00;52281.00;2097293;28;20797;-62
2023/09/20 05:06:26;;;;;;;;;;;;;;;-146.25;100.00;52274.94;2097122;28;24360;-61
2023/09/20 05:07:29;;;;;;;;;;;;;;;-146.25;100.00;52264.78;2105740;28;20804;-61
2023/09/20 05:08:32;;;;;;;;;;;;;;;-146.25;100.00;52293.19;2097018;28;19924;-62
2023/09/20 05:09:35;;;;;;;;;;;;;;;-146.25;100.00;52270.88;2097166;28;23601;-61
2023/09/20 05:10:37;;;;;;;;;;;;;;;-146.25;100.00;52317.50;2105654;28;19929;-61
2023/09/20 05:11:42;;;;;;;;;;;;;;;-146.25;100.00;52274.94;2097069;28;20349;-62
2023/09/20 05:12:44;;;;;;;;;;;;;;;-146.25;100.00;52293.19;2097346;28;19928;-62
2023/09/20 05:13:46;;;;;;;;;;;;;;;-146.25;100.00;52266.81;2105144;28;19931;-61
2023/09/20 05:14:49;;;;;;;;;;;;;;;-146.25;100.00;52287.09;2096837;28;20789;-62
2023/09/20 05:15:53;;;;;;;;;;;;;;;-146.25;100.00;52295.19;2089012;28;19929;-61